createdAt,value
2022-11-26T00:01:00.596Z,19.15
2022-11-26T00:03:34.062Z,20.52
2022-11-26T00:06:25.084Z,20.17
2022-11-26T00:08:59.539Z,21.40
2022-11-26T00:11:33.430Z,19.08
2022-11-26T00:14:13.331Z,22.85
2022-11-26T00:16:48.177Z,23.23
2022-11-26T00:19:21.662Z,24.05
2022-11-26T00:21:54.983Z,20.98
2022-11-26T00:24:30.420Z,20.80
2022-11-26T00:27:03.771Z,22.40
2022-11-26T00:29:37.094Z,21.20
2022-11-26T00:32:17.634Z,21.65
2022-11-26T00:34:51.155Z,20.60
2022-11-26T00:37:28.355Z,20.98
2022-11-26T00:40:01.843Z,21.88
2022-11-26T00:42:35.139Z,23.20
2022-11-26T00:45:19.482Z,25.70
2022-11-26T00:47:54.720Z,22.38
2022-11-26T00:50:28.857Z,23.13
2022-11-26T00:53:02.698Z,21.13
2022-11-26T00:55:38.192Z,28.30
2022-11-26T00:58:22.570Z,25.00
2022-11-26T01:00:57.871Z,22.27
2022-11-26T01:03:32.563Z,23.17
2022-11-26T01:06:06.530Z,24.50
2022-11-26T01:08:40.009Z,22.25
2022-11-26T01:11:16.039Z,24.83
2022-11-26T01:13:51.216Z,23.85
2022-11-26T01:16:26.891Z,23.38
2022-11-26T01:19:03.204Z,24.33
2022-11-26T01:21:36.639Z,23.60
2022-11-26T01:24:10.034Z,23.75
2022-11-26T01:26:45.655Z,21.67
2022-11-26T01:29:20.781Z,26.25
2022-11-26T01:31:54.309Z,21.63
2022-11-26T01:34:28.989Z,23.40
2022-11-26T01:37:02.453Z,22.83
2022-11-26T01:39:35.738Z,25.42
2022-11-26T01:42:22.423Z,25.25
2022-11-26T01:44:55.765Z,23.45
2022-11-26T01:47:31.441Z,25.25
2022-11-26T01:50:42.253Z,21.85
2022-11-26T01:53:24.738Z,22.70
2022-11-26T01:56:02.342Z,23.98
2022-11-26T01:58:40.182Z,20.55
2022-11-26T02:01:14.411Z,21.85
2022-11-26T02:03:55.809Z,24.45
2022-11-26T02:06:34.512Z,22.58
2022-11-26T02:09:11.585Z,23.33
2022-11-26T02:11:45.730Z,25.85
2022-11-26T02:14:21.948Z,24.88
2022-11-26T02:17:03.893Z,25.85
2022-11-26T02:20:08.521Z,26.17
2022-11-26T02:23:08.936Z,20.98
2022-11-26T02:26:09.550Z,22.98
2022-11-26T02:28:59.723Z,20.58
2022-11-26T02:31:38.674Z,21.52
2022-11-26T02:34:19.249Z,21.73
2022-11-26T02:36:57.759Z,22.70
2022-11-26T02:39:32.264Z,22.00
2022-11-26T02:42:23.313Z,23.25
2022-11-26T02:44:58.866Z,22.65
2022-11-26T02:47:34.862Z,22.05
2022-11-26T02:50:13.328Z,23.05
2022-11-26T02:52:48.172Z,23.80
2022-11-26T02:55:26.692Z,21.92
2022-11-26T02:58:00.721Z,23.45
2022-11-26T03:00:37.456Z,22.00
2022-11-26T03:03:23.132Z,20.63
2022-11-26T03:05:59.624Z,23.10
2022-11-26T03:08:34.064Z,22.58
2022-11-26T03:11:07.981Z,21.60
2022-11-26T03:13:41.657Z,22.20
2022-11-26T03:16:15.139Z,22.00
2022-11-26T03:18:49.804Z,20.65
2022-11-26T03:21:23.462Z,21.13
2022-11-26T03:23:56.766Z,20.13
2022-11-26T03:26:30.239Z,21.75
2022-11-26T03:29:03.544Z,22.42
2022-11-26T03:31:37.107Z,22.88
2022-11-26T03:34:11.907Z,21.95
2022-11-26T03:36:45.522Z,19.80
2022-11-26T03:39:19.604Z,20.95
2022-11-26T03:41:52.857Z,18.80
2022-11-26T03:44:26.309Z,21.38
2022-11-26T03:46:59.574Z,21.77
2022-11-26T03:49:34.823Z,21.88
2022-11-26T03:52:08.282Z,23.92
2022-11-26T03:54:41.709Z,21.50
2022-11-26T03:57:14.998Z,21.85
2022-11-26T03:59:48.571Z,19.55
2022-11-26T04:02:21.873Z,22.85
2022-11-26T04:04:56.702Z,20.67
2022-11-26T04:07:30.078Z,19.77
2022-11-26T04:10:03.910Z,20.98
2022-11-26T04:12:37.400Z,25.80
2022-11-26T04:15:11.982Z,22.90
2022-11-26T04:17:45.272Z,22.80
2022-11-26T04:20:20.263Z,21.80
2022-11-26T04:22:53.691Z,25.90
2022-11-26T04:25:27.286Z,21.65
2022-11-26T04:28:00.772Z,25.02
2022-11-26T04:30:34.048Z,22.00
2022-11-26T04:33:07.625Z,23.08
2022-11-26T04:35:42.459Z,23.73
2022-11-26T04:38:15.685Z,20.80
2022-11-26T04:40:49.887Z,22.77
2022-11-26T04:43:23.124Z,22.73
2022-11-26T04:45:56.938Z,21.85
2022-11-26T04:48:30.291Z,21.88
2022-11-26T04:51:05.595Z,21.92
2022-11-26T04:53:38.878Z,19.75
2022-11-26T04:56:12.294Z,21.15
2022-11-26T04:58:45.721Z,20.58
2022-11-26T05:01:19.279Z,19.33
2022-11-26T05:03:52.902Z,19.38
2022-11-26T05:06:27.560Z,21.40
2022-11-26T05:09:00.850Z,20.45
2022-11-26T05:11:34.438Z,16.40
2022-11-26T05:14:07.726Z,20.85
2022-11-26T05:16:41.077Z,18.50
2022-11-26T05:19:14.369Z,19.95
2022-11-26T05:21:49.454Z,15.85
2022-11-26T05:24:22.714Z,18.60
2022-11-26T05:26:57.309Z,19.17
2022-11-26T05:29:31.876Z,20.90
2022-11-26T05:32:05.781Z,18.27
2022-11-26T05:34:39.279Z,21.70
2022-11-26T05:37:13.995Z,20.90
2022-11-26T05:39:47.731Z,17.65
2022-11-26T05:42:21.020Z,17.48
2022-11-26T05:44:54.294Z,18.27
2022-11-26T05:47:27.818Z,21.17
2022-11-26T05:50:01.221Z,20.05
2022-11-26T05:52:36.114Z,19.27
2022-11-26T05:55:10.578Z,20.05
2022-11-26T05:57:44.172Z,18.52
2022-11-26T06:00:18.163Z,20.98
2022-11-26T06:02:51.569Z,21.70
2022-11-26T06:05:25.275Z,18.77
2022-11-26T06:07:59.979Z,20.52
2022-11-26T06:10:33.752Z,19.85
2022-11-26T06:13:07.246Z,17.60
2022-11-26T06:15:40.537Z,20.17
2022-11-26T06:18:14.025Z,25.63
2022-11-26T06:20:47.346Z,22.33
2022-11-26T06:23:22.227Z,19.08
2022-11-26T06:25:55.523Z,23.15
2022-11-26T06:28:28.946Z,21.77
2022-11-26T06:31:02.295Z,20.85
2022-11-26T06:33:35.865Z,23.55
2022-11-26T06:36:09.244Z,22.08
2022-11-26T06:38:44.317Z,24.77
2022-11-26T06:41:17.777Z,25.33
2022-11-26T06:43:51.100Z,23.20
2022-11-26T06:46:24.332Z,23.05
2022-11-26T06:49:02.651Z,25.70
2022-11-26T06:51:35.950Z,24.75
2022-11-26T06:54:10.699Z,22.95
2022-11-26T06:56:44.043Z,24.75
2022-11-26T06:59:17.358Z,25.13
2022-11-26T07:01:50.878Z,29.52
2022-11-26T07:04:24.440Z,24.45
2022-11-26T07:06:58.052Z,26.52
2022-11-26T07:09:32.683Z,21.35
2022-11-26T07:12:06.577Z,22.83
2022-11-26T07:14:40.063Z,22.10
2022-11-26T07:17:13.725Z,23.30
2022-11-26T07:19:47.053Z,25.20
2022-11-26T07:22:20.675Z,21.75
2022-11-26T07:24:55.338Z,21.65
2022-11-26T07:27:28.628Z,22.35
2022-11-26T07:30:01.948Z,23.00
2022-11-26T07:32:35.295Z,23.95
2022-11-26T07:35:10.337Z,32.47
2022-11-26T07:37:44.714Z,22.08
2022-11-26T07:40:19.560Z,27.50
2022-11-26T07:42:53.461Z,23.75
2022-11-26T07:45:30.867Z,22.83
2022-11-26T07:48:04.568Z,29.00
2022-11-26T07:50:37.896Z,21.20
2022-11-26T07:53:11.182Z,23.35
2022-11-26T07:55:45.850Z,21.73
2022-11-26T07:58:19.165Z,28.42
2022-11-26T08:00:54.961Z,25.13
2022-11-26T08:03:28.648Z,19.73
2022-11-26T08:06:01.928Z,20.35
2022-11-26T08:08:35.983Z,19.38
2022-11-26T08:11:16.941Z,18.85
2022-11-26T08:13:53.437Z,17.92
2022-11-26T08:16:29.071Z,17.75
2022-11-26T08:19:05.559Z,18.05
2022-11-26T08:21:39.623Z,15.90
2022-11-26T08:24:15.641Z,15.60
2022-11-26T08:26:50.309Z,15.43
2022-11-26T08:29:23.585Z,25.02
2022-11-26T08:31:56.924Z,13.73
2022-11-26T08:34:30.529Z,12.98
2022-11-26T08:37:03.887Z,14.10
2022-11-26T08:39:37.491Z,11.45
2022-11-26T08:42:12.133Z,11.13
2022-11-26T08:44:45.742Z,11.80
2022-11-26T08:47:19.040Z,11.55
2022-11-26T08:49:52.487Z,12.10
2022-11-26T08:52:25.767Z,13.10
2022-11-26T08:54:59.248Z,12.82
2022-11-26T08:57:33.870Z,12.45
2022-11-26T09:00:08.438Z,12.43
2022-11-26T09:02:41.966Z,13.50
2022-11-26T09:05:15.388Z,12.23
2022-11-26T09:07:49.293Z,11.40
2022-11-26T09:10:22.618Z,12.02
2022-11-26T09:12:57.249Z,10.70
2022-11-26T09:15:30.677Z,10.93
2022-11-26T09:18:04.082Z,13.90
2022-11-26T09:20:37.418Z,10.23
2022-11-26T09:23:10.917Z,9.95
2022-11-26T09:25:44.214Z,12.23
2022-11-26T09:28:18.868Z,10.90
2022-11-26T09:30:57.906Z,10.10
2022-11-26T09:33:32.075Z,9.38
2022-11-26T09:36:06.712Z,10.85
2022-11-26T09:38:40.961Z,9.80
2022-11-26T09:41:27.555Z,10.93
2022-11-26T09:44:18.065Z,10.93
2022-11-26T09:47:12.026Z,9.57
2022-11-26T09:50:00.520Z,9.68
2022-11-26T09:52:39.352Z,11.20
2022-11-26T09:55:16.966Z,9.25
2022-11-26T09:57:59.222Z,11.20
2022-11-26T10:00:41.211Z,11.10
2022-11-26T10:03:16.449Z,11.32
2022-11-26T10:05:58.015Z,8.60
2022-11-26T10:08:56.916Z,9.52
2022-11-26T10:11:37.900Z,8.68
2022-11-26T10:14:29.718Z,8.48
2022-11-26T10:17:18.804Z,7.15
2022-11-26T10:20:05.604Z,7.18
2022-11-26T10:22:47.047Z,7.40
2022-11-26T10:25:23.836Z,7.85
2022-11-26T10:27:59.342Z,7.82
2022-11-26T10:30:33.958Z,8.52
2022-11-26T10:33:12.115Z,7.35
2022-11-26T10:35:48.156Z,6.93
2022-11-26T10:38:21.690Z,7.95
2022-11-26T10:40:54.964Z,7.45
2022-11-26T10:43:28.519Z,7.20
2022-11-26T10:46:01.870Z,6.60
2022-11-26T10:48:37.154Z,8.80
2022-11-26T10:51:16.512Z,6.80
2022-11-26T10:53:54.746Z,6.63
2022-11-26T10:56:36.880Z,7.57
2022-11-26T10:59:20.683Z,6.50
2022-11-26T11:01:57.456Z,6.00
2022-11-26T11:04:36.107Z,5.68
2022-11-26T11:07:30.573Z,6.90
2022-11-26T11:10:06.045Z,6.65
2022-11-26T11:12:40.635Z,6.82
2022-11-26T11:15:25.726Z,7.35
2022-11-26T11:18:02.247Z,7.45
2022-11-26T11:20:40.234Z,6.63
2022-11-26T11:23:34.807Z,5.68
2022-11-26T11:26:20.544Z,5.53
2022-11-26T11:28:56.445Z,5.50
2022-11-26T11:31:29.769Z,6.57
2022-11-26T11:34:20.764Z,5.55
2022-11-26T11:37:03.094Z,7.25
2022-11-26T11:39:36.762Z,5.82
2022-11-26T11:42:23.163Z,4.90
2022-11-26T11:44:57.373Z,6.13
2022-11-26T11:47:37.422Z,5.57
2022-11-26T11:50:21.013Z,5.55
2022-11-26T11:53:23.158Z,7.55
2022-11-26T11:56:15.040Z,5.90
2022-11-26T11:59:13.131Z,5.05
2022-11-26T12:02:01.486Z,7.95
2022-11-26T12:04:53.294Z,6.68
2022-11-26T12:07:42.875Z,6.05
2022-11-26T12:10:24.185Z,5.70
2022-11-26T12:13:01.144Z,6.30
2022-11-26T12:15:39.849Z,5.45
2022-11-26T12:18:23.825Z,5.53
2022-11-26T12:21:01.304Z,6.30
2022-11-26T12:23:39.696Z,6.97
2022-11-26T12:26:18.233Z,7.13
2022-11-26T12:28:56.906Z,6.43
2022-11-26T12:31:34.179Z,6.00
2022-11-26T12:34:13.124Z,7.05
2022-11-26T12:36:51.239Z,5.75
2022-11-26T12:39:34.624Z,7.30
2022-11-26T12:42:17.374Z,6.05
2022-11-26T12:47:30.604Z,6.63
2022-11-26T12:50:12.978Z,8.30
2022-11-26T12:52:55.908Z,6.88
2022-11-26T12:55:34.462Z,7.97
2022-11-26T12:58:15.609Z,6.40
2022-11-26T13:00:49.793Z,6.68
2022-11-26T13:03:28.837Z,7.15
2022-11-26T13:06:08.903Z,7.45
2022-11-26T13:08:51.160Z,6.50
2022-11-26T13:11:38.079Z,6.20
2022-11-26T13:14:20.499Z,5.18
2022-11-26T13:16:58.840Z,4.40
2022-11-26T13:19:37.143Z,6.70
2022-11-26T13:22:44.963Z,7.95
2022-11-26T13:25:41.842Z,7.70
2022-11-26T13:28:28.047Z,7.65
2022-11-26T13:31:19.199Z,7.93
2022-11-26T13:34:16.847Z,7.45
2022-11-26T13:37:09.099Z,6.28
2022-11-26T13:40:30.084Z,5.97
2022-11-26T13:43:50.025Z,6.90
2022-11-26T13:46:30.008Z,7.30
2022-11-26T13:49:07.118Z,6.88
2022-11-26T13:51:46.877Z,7.78
2022-11-26T13:54:27.080Z,7.50
2022-11-26T13:57:09.808Z,6.03
2022-11-26T14:02:47.389Z,6.53
2022-11-26T14:05:20.756Z,6.32
2022-11-26T14:08:31.912Z,6.60
2022-11-26T14:11:05.565Z,7.00
2022-11-26T14:13:39.251Z,6.80
2022-11-26T14:16:13.335Z,7.40
2022-11-26T14:19:01.769Z,7.50
2022-11-26T14:22:00.107Z,6.80
2022-11-26T14:24:56.676Z,9.20
2022-11-26T14:27:32.849Z,8.52
2022-11-26T14:30:24.470Z,10.02
2022-11-26T14:33:17.505Z,8.25
2022-11-26T14:35:57.375Z,8.48
2022-11-26T14:38:33.152Z,8.15
2022-11-26T14:41:06.618Z,9.02
2022-11-26T14:43:39.945Z,11.38
2022-11-26T14:46:17.289Z,9.60
2022-11-26T14:48:52.624Z,11.07
2022-11-26T14:51:30.196Z,9.70
2022-11-26T14:54:03.667Z,10.98
2022-11-26T14:56:45.247Z,11.73
2022-11-26T14:59:20.234Z,12.52
2022-11-26T15:01:53.610Z,11.40
2022-11-26T15:04:29.318Z,10.85
2022-11-26T15:07:04.077Z,12.80
2022-11-26T15:09:37.393Z,11.80
2022-11-26T15:12:14.856Z,9.52
2022-11-26T15:14:55.659Z,11.27
2022-11-26T15:17:31.493Z,10.85
2022-11-26T15:20:09.092Z,9.68
2022-11-26T15:22:49.080Z,11.98
2022-11-26T15:25:25.856Z,9.80
2022-11-26T15:28:01.845Z,10.10
2022-11-26T15:30:37.663Z,12.88
2022-11-26T15:33:15.178Z,13.60
2022-11-26T15:35:56.648Z,12.30
2022-11-26T15:38:32.847Z,13.50
2022-11-26T15:41:08.993Z,14.57
2022-11-26T15:43:45.009Z,15.68
2022-11-26T15:46:20.859Z,15.30
2022-11-26T15:48:57.060Z,25.70
2022-11-26T15:51:36.032Z,25.17
2022-11-26T15:54:23.819Z,24.38
2022-11-26T15:57:01.617Z,40.70
2022-11-26T15:59:43.235Z,47.90
2022-11-26T16:02:20.912Z,48.58
2022-11-26T16:04:55.612Z,44.72
2022-11-26T16:07:30.557Z,42.83
2022-11-26T16:10:22.368Z,38.88
2022-11-26T16:13:20.900Z,40.78
2022-11-26T16:16:01.036Z,39.00
2022-11-26T16:18:38.386Z,42.10
2022-11-26T16:21:19.170Z,43.50
2022-11-26T16:23:59.058Z,40.10
2022-11-26T16:26:53.745Z,38.25
2022-11-26T16:29:27.309Z,37.17
2022-11-26T16:32:00.757Z,43.30
2022-11-26T16:34:34.030Z,40.72
2022-11-26T16:37:22.373Z,38.45
2022-11-26T16:40:02.517Z,36.17
2022-11-26T16:42:37.386Z,43.58
2022-11-26T16:45:12.199Z,35.47
2022-11-26T16:47:47.757Z,42.17
2022-11-26T16:50:23.065Z,34.55
2022-11-26T16:52:56.978Z,37.17
2022-11-26T16:55:30.414Z,31.88
2022-11-26T16:58:06.763Z,26.48
2022-11-26T17:00:40.163Z,27.40
2022-11-26T17:03:14.774Z,28.05
2022-11-26T17:05:48.217Z,28.27
2022-11-26T17:08:21.929Z,28.65
2022-11-26T17:10:55.268Z,34.05
2022-11-26T17:13:31.120Z,31.83
2022-11-26T17:16:04.754Z,31.38
2022-11-26T17:18:38.135Z,27.23
2022-11-26T17:21:11.559Z,28.52
2022-11-26T17:23:44.945Z,30.08
2022-11-26T17:26:22.044Z,31.88
2022-11-26T17:28:56.775Z,30.00
2022-11-26T17:31:30.960Z,29.75
2022-11-26T17:34:04.417Z,23.55
2022-11-26T17:36:37.829Z,20.83
2022-11-26T17:39:12.269Z,18.10
2022-11-26T17:41:45.563Z,20.42
2022-11-26T17:44:20.307Z,22.65
2022-11-26T17:47:15.856Z,21.90
2022-11-26T17:49:48.779Z,20.88
2022-11-26T17:52:23.012Z,21.92
2022-11-26T17:54:56.305Z,20.60
2022-11-26T17:57:29.612Z,20.23
2022-11-26T18:00:05.070Z,18.13
2022-11-26T18:02:38.618Z,19.75
2022-11-26T18:05:12.269Z,24.42
2022-11-26T18:07:45.585Z,29.95
2022-11-26T18:10:20.870Z,31.10
2022-11-26T18:12:55.162Z,30.80
2022-11-26T18:15:29.874Z,28.80
2022-11-26T18:18:04.475Z,24.67
2022-11-26T18:20:37.882Z,27.73
2022-11-26T18:23:11.330Z,21.48
2022-11-26T18:25:53.407Z,22.45
2022-11-26T18:28:26.747Z,25.48
2022-11-26T18:31:01.430Z,32.60
2022-11-26T18:33:34.718Z,33.92
2022-11-26T18:36:08.763Z,37.05
2022-11-26T18:38:42.237Z,41.47
2022-11-26T18:41:15.679Z,40.85
2022-11-26T18:43:49.378Z,40.78
2022-11-26T18:46:24.236Z,44.10
2022-11-26T18:48:58.493Z,40.17
2022-11-26T18:51:32.328Z,40.78
2022-11-26T18:54:06.204Z,41.53
2022-11-26T18:56:39.588Z,41.13
2022-11-26T18:59:14.610Z,38.90
2022-11-26T19:01:50.634Z,39.45
2022-11-26T19:04:24.292Z,48.00
2022-11-26T19:06:57.613Z,42.00
2022-11-26T19:09:30.958Z,43.10
2022-11-26T19:12:04.411Z,44.00
2022-11-26T19:14:37.775Z,42.17
2022-11-26T19:17:12.531Z,40.92
2022-11-26T19:19:45.800Z,41.20
2022-11-26T19:22:19.254Z,40.63
2022-11-26T19:24:52.475Z,46.55
2022-11-26T19:27:25.725Z,49.45
2022-11-26T19:29:58.959Z,40.78
2022-11-26T19:32:33.597Z,44.80
2022-11-26T19:35:07.565Z,39.85
2022-11-26T19:37:40.832Z,38.65
2022-11-26T19:40:14.457Z,35.10
2022-11-26T19:42:47.740Z,27.20
2022-11-26T19:45:21.000Z,22.88
2022-11-26T19:47:55.591Z,29.15
2022-11-26T19:50:28.880Z,34.88
2022-11-26T19:53:02.246Z,30.70
2022-11-26T19:55:36.017Z,19.60
2022-11-26T19:58:09.299Z,18.30
2022-11-26T20:00:44.072Z,23.40
2022-11-26T20:03:19.017Z,31.80
2022-11-26T20:05:53.352Z,33.28
2022-11-26T20:08:26.703Z,32.22
2022-11-26T20:11:04.175Z,29.08
2022-11-26T20:13:39.201Z,29.30
2022-11-26T20:16:14.710Z,19.85
2022-11-26T20:18:50.207Z,18.73
2022-11-26T20:21:25.625Z,18.77
2022-11-26T20:24:00.630Z,18.67
2022-11-26T20:26:35.789Z,21.17
2022-11-26T20:29:10.485Z,16.15
2022-11-26T20:31:45.868Z,20.80
2022-11-26T20:34:22.202Z,21.33
2022-11-26T20:36:56.104Z,17.75
2022-11-26T20:39:29.907Z,20.88
2022-11-26T20:42:03.249Z,18.83
2022-11-26T20:44:36.596Z,18.67
2022-11-26T20:47:09.901Z,21.08
2022-11-26T20:49:45.116Z,21.95
2022-11-26T20:52:21.461Z,20.48
2022-11-26T20:54:54.879Z,22.02
2022-11-26T20:57:28.198Z,21.70
2022-11-26T21:00:03.242Z,20.00
2022-11-26T21:02:36.697Z,22.67
2022-11-26T21:05:11.771Z,22.35
2022-11-26T21:07:45.189Z,19.38
2022-11-26T21:10:19.778Z,19.00
2022-11-26T21:12:53.188Z,19.92
2022-11-26T21:15:26.672Z,22.63
2022-11-26T21:18:00.072Z,25.42
2022-11-26T21:20:36.360Z,23.17
2022-11-26T21:23:10.675Z,24.25
2022-11-26T21:25:44.747Z,28.38
2022-11-26T21:28:20.084Z,30.02
2022-11-26T21:30:53.468Z,29.63
2022-11-26T21:33:26.805Z,25.80
2022-11-26T21:36:06.921Z,29.98
2022-11-26T21:38:40.844Z,30.55
2022-11-26T21:41:15.634Z,28.25
2022-11-26T21:43:49.746Z,28.48
2022-11-26T21:46:25.791Z,27.33
2022-11-26T21:48:59.621Z,27.80
2022-11-26T21:51:34.321Z,29.58
2022-11-26T21:54:07.715Z,29.20
2022-11-26T21:56:41.074Z,30.65
2022-11-26T21:59:14.593Z,31.42
2022-11-26T22:01:48.461Z,27.05
2022-11-26T22:04:21.791Z,30.27
2022-11-26T22:06:56.521Z,30.85
2022-11-26T22:09:30.212Z,27.85
2022-11-26T22:12:04.025Z,27.95
2022-11-26T22:14:37.372Z,27.02
2022-11-26T22:17:10.629Z,25.65
2022-11-26T22:19:43.922Z,25.15
2022-11-26T22:22:18.712Z,26.65
2022-11-26T22:24:51.994Z,25.30
2022-11-26T22:27:25.246Z,36.35
2022-11-26T22:29:58.490Z,40.95
2022-11-26T22:32:32.003Z,33.03
2022-11-26T22:35:05.723Z,29.45
2022-11-26T22:37:40.380Z,39.05
2022-11-26T22:40:14.044Z,34.08
2022-11-26T22:42:47.311Z,35.25
2022-11-26T22:45:20.567Z,42.75
2022-11-26T22:47:53.994Z,37.50
2022-11-26T22:50:27.429Z,34.03
2022-11-26T22:53:02.036Z,36.55
2022-11-26T22:55:35.460Z,29.92
2022-11-26T22:58:08.705Z,31.25
2022-11-26T23:00:48.947Z,29.23
2022-11-26T23:03:22.416Z,26.77
2022-11-26T23:05:56.483Z,27.75
2022-11-26T23:08:31.621Z,22.98
2022-11-26T23:11:09.926Z,26.63
2022-11-26T23:13:44.459Z,28.25
2022-11-26T23:16:19.078Z,28.65
2022-11-26T23:18:54.010Z,15.35
2022-11-26T23:21:29.397Z,11.75
2022-11-26T23:24:04.043Z,8.70
2022-11-26T23:26:39.289Z,11.32
2022-11-26T23:29:13.255Z,10.23
2022-11-26T23:31:46.571Z,10.00
2022-11-26T23:34:20.049Z,10.07
2022-11-26T23:36:53.306Z,6.68
2022-11-26T23:39:28.258Z,6.35
2022-11-26T23:42:01.540Z,6.70
2022-11-26T23:44:35.004Z,6.43
2022-11-26T23:47:08.442Z,6.93
2022-11-26T23:49:41.991Z,9.73
2022-11-26T23:52:15.908Z,9.30
2022-11-26T23:54:50.533Z,14.85
2022-11-26T23:57:24.152Z,12.75
2022-11-26T23:59:57.574Z,12.55
